Time;durP1;ratioP1;P1;durP2;ratioP2;P2;SDS_P1;SDS_P2;PMS_P1;PMS_P2;Temp;Humidity;BMP_temperature;BMP_pressure;BME280_temperature;BME280_humidity;BME280_pressure;Samples;Min_cycle;Max_cycle;Signal;HPM_P1;HPM_P2
2023/12/07 00:01:08;;;;;;;;;;;;;;;6.63;60.80;100911.53;5021932;28;7048;-72
2023/12/07 00:03:33;;;;;;;;;;;;;;;6.61;60.98;100912.19;5040357;28;6799;-73
2023/12/07 00:05:59;;;;;;;;;;;;;;;6.57;61.17;100915.28;5016123;28;6997;-75
2023/12/07 00:08:25;;;;;;;;;;;;;;;6.52;61.50;100907.31;5024798;28;6970;-73
2023/12/07 00:10:50;;;;;;;;;;;;;;;6.48;60.78;100913.84;5017655;28;7138;-75
2023/12/07 00:13:16;;;;;;;;;;;;;;;6.45;60.71;100913.59;5034084;28;7491;-75
2023/12/07 00:15:41;;;;;;;;;;;;;;;6.41;61.27;100913.28;5016204;28;6871;-75
2023/12/07 00:18:07;;;;;;;;;;;;;;;6.39;61.27;100921.69;5006554;28;7186;-75
2023/12/07 00:20:33;;;;;;;;;;;;;;;6.37;61.34;100912.16;5039817;28;6779;-75
2023/12/07 00:22:58;;;;;;;;;;;;;;;6.33;61.17;100902.53;5017067;28;6995;-75
2023/12/07 00:25:24;;;;;;;;;;;;;;;6.32;61.29;100904.19;4995359;28;6966;-75
2023/12/07 00:27:49;;;;;;;;;;;;;;;6.32;61.40;100910.94;5014857;28;6819;-75
2023/12/07 00:30:15;;;;;;;;;;;;;;;6.29;61.11;100909.06;5012940;28;6852;-75
2023/12/07 00:32:43;;;;;;;;;;;;;;;6.29;61.02;100901.41;5021342;28;7236;-75
2023/12/07 00:35:13;;;;;;;;;;;;;;;6.24;60.85;100906.19;5037390;28;7010;-75
2023/12/07 00:37:38;;;;;;;;;;;;;;;6.19;60.66;100901.53;5017012;28;6791;-75
2023/12/07 00:40:05;;;;;;;;;;;;;;;6.13;61.02;100898.50;4996692;28;8666;-75
2023/12/07 00:42:30;;;;;;;;;;;;;;;6.07;61.01;100910.03;5034700;28;8439;-75
2023/12/07 00:44:56;;;;;;;;;;;;;;;6.05;61.30;100910.69;5015530;28;7257;-75
2023/12/07 00:47:22;;;;;;;;;;;;;;;6.04;61.14;100911.47;4997627;28;8034;-76
2023/12/07 00:49:47;;;;;;;;;;;;;;;6.03;61.18;100912.22;5029311;28;6787;-75
2023/12/07 00:52:13;;;;;;;;;;;;;;;6.05;61.67;100910.69;4996353;28;7145;-75
2023/12/07 00:54:39;;;;;;;;;;;;;;;6.05;61.61;100915.78;5037055;28;7288;-75
2023/12/07 00:57:05;;;;;;;;;;;;;;;6.05;61.67;100909.03;5015123;28;6792;-75
2023/12/07 00:59:33;;;;;;;;;;;;;;;6.06;61.20;100913.34;5000506;28;7195;-75
2023/12/07 01:02:06;;;;;;;;;;;;;;;6.06;61.72;100912.44;5019931;28;6812;-75
2023/12/07 01:04:32;;;;;;;;;;;;;;;6.04;61.06;100912.34;5031738;28;7040;-75
2023/12/07 01:06:58;;;;;;;;;;;;;;;6.03;61.27;100918.19;5037515;28;6974;-75
2023/12/07 01:09:24;;;;;;;;;;;;;;;6.04;61.41;100906.38;5014975;28;6871;-76
2023/12/07 01:11:51;;;;;;;;;;;;;;;6.02;61.70;100911.34;5007128;28;7458;-76
2023/12/07 01:14:16;;;;;;;;;;;;;;;6.01;61.64;100913.75;5013729;28;6816;-75
2023/12/07 01:16:43;;;;;;;;;;;;;;;5.98;61.58;100912.72;5013213;28;6791;-75
2023/12/07 01:19:08;;;;;;;;;;;;;;;5.96;61.46;100919.38;5041912;28;6827;-75
2023/12/07 01:21:34;;;;;;;;;;;;;;;5.96;61.36;100916.81;5025554;28;6809;-75
2023/12/07 01:23:59;;;;;;;;;;;;;;;5.96;61.06;100915.94;5020310;28;6812;-75
2023/12/07 01:26:25;;;;;;;;;;;;;;;5.94;61.23;100918.38;5014363;28;6804;-75
2023/12/07 01:28:50;;;;;;;;;;;;;;;5.95;61.85;100925.22;5017273;28;7877;-76
2023/12/07 01:31:17;;;;;;;;;;;;;;;5.93;61.60;100926.78;5019211;28;7229;-75
2023/12/07 01:33:43;;;;;;;;;;;;;;;5.94;61.93;100935.28;4998169;28;7060;-75
2023/12/07 01:36:09;;;;;;;;;;;;;;;5.94;61.85;100932.72;5014493;28;7861;-75
2023/12/07 01:38:34;;;;;;;;;;;;;;;5.94;61.35;100945.47;5018705;28;6843;-75
2023/12/07 01:40:59;;;;;;;;;;;;;;;5.92;61.29;100950.44;5020346;28;7787;-75
2023/12/07 01:43:25;;;;;;;;;;;;;;;5.91;61.31;100946.13;5016657;28;6825;-75
2023/12/07 01:45:53;;;;;;;;;;;;;;;5.90;61.87;100941.81;5037263;28;6788;-75
2023/12/07 01:48:20;;;;;;;;;;;;;;;5.90;61.50;100940.94;5015278;28;6807;-75
2023/12/07 01:50:47;;;;;;;;;;;;;;;5.89;61.74;100944.25;4997979;28;7312;-75
2023/12/07 01:53:13;;;;;;;;;;;;;;;5.86;61.59;100941.47;5041534;28;7222;-75
2023/12/07 01:55:39;;;;;;;;;;;;;;;5.86;61.42;100946.56;5024425;28;6803;-75
2023/12/07 01:58:06;;;;;;;;;;;;;;;5.85;61.34;100943.13;5033684;28;7420;-75
2023/12/07 02:00:33;;;;;;;;;;;;;;;5.83;61.99;100937.91;5039786;28;6795;-75
2023/12/07 02:02:59;;;;;;;;;;;;;;;5.83;61.71;100937.91;5019441;28;8256;-75
2023/12/07 02:05:25;;;;;;;;;;;;;;;5.82;61.50;100935.25;5022708;28;6800;-75
2023/12/07 02:07:51;;;;;;;;;;;;;;;5.82;61.56;100931.03;5040863;28;6886;-75
2023/12/07 02:10:18;;;;;;;;;;;;;;;5.84;61.52;100933.72;5002676;28;7345;-75
2023/12/07 02:12:44;;;;;;;;;;;;;;;5.87;62.10;100939.03;5019750;28;7065;-75
2023/12/07 02:15:11;;;;;;;;;;;;;;;5.91;62.37;100933.41;5019230;28;6855;-75
2023/12/07 02:17:58;;;;;;;;;;;;;;;5.93;62.25;100944.59;5019356;28;6991;-75
2023/12/07 02:20:31;;;;;;;;;;;;;;;5.94;62.24;100940.38;5019535;28;7374;-75
2023/12/07 02:23:01;;;;;;;;;;;;;;;5.93;61.75;100934.41;5022738;28;7093;-76
2023/12/07 02:25:44;;;;;;;;;;;;;;;5.89;62.10;100942.59;5024068;28;6807;-75
2023/12/07 02:28:10;;;;;;;;;;;;;;;5.85;61.66;100940.56;5039721;28;6808;-75
2023/12/07 02:30:36;;;;;;;;;;;;;;;5.81;61.72;100942.00;5017590;28;7257;-71
2023/12/07 02:33:01;;;;;;;;;;;;;;;5.77;61.85;100947.63;5016706;28;6973;-72
2023/12/07 02:35:28;;;;;;;;;;;;;;;5.74;61.52;100946.50;5016118;28;6932;-72
2023/12/07 02:37:54;;;;;;;;;;;;;;;5.70;61.23;100933.56;5019889;28;7191;-72
2023/12/07 02:40:28;;;;;;;;;;;;;;;5.67;61.67;100932.44;5024725;28;6796;-72
2023/12/07 02:42:54;;;;;;;;;;;;;;;5.61;61.26;100934.50;5004538;28;7422;-73
2023/12/07 02:45:20;;;;;;;;;;;;;;;5.56;61.36;100937.59;5009236;28;7004;-72
2023/12/07 02:47:45;;;;;;;;;;;;;;;5.53;61.39;100936.47;5036412;28;6869;-74
2023/12/07 02:50:12;;;;;;;;;;;;;;;5.48;60.96;100940.31;4998593;28;7033;-73
2023/12/07 02:52:38;;;;;;;;;;;;;;;5.41;60.88;100934.75;4999978;28;7312;-71
2023/12/07 02:55:04;;;;;;;;;;;;;;;5.37;60.95;100942.91;5035628;28;6840;-74
2023/12/07 02:57:29;;;;;;;;;;;;;;;5.33;60.82;100938.38;5017858;28;7013;-74
2023/12/07 02:59:55;;;;;;;;;;;;;;;5.31;61.49;100944.09;5013788;28;6812;-74
2023/12/07 03:02:21;;;;;;;;;;;;;;;5.29;61.39;100936.34;5011544;28;7422;-73
2023/12/07 03:04:46;;;;;;;;;;;;;;;5.30;61.04;100935.56;5034477;28;6815;-73
2023/12/07 03:07:12;;;;;;;;;;;;;;;5.29;61.51;100933.78;5031651;28;7341;-72
2023/12/07 03:09:38;;;;;;;;;;;;;;;5.30;61.82;100929.59;5016453;28;7824;-72
2023/12/07 03:12:03;;;;;;;;;;;;;;;5.28;61.13;100930.38;5019627;28;7403;-73
2023/12/07 03:14:29;;;;;;;;;;;;;;;5.30;61.06;100935.56;5018023;28;7207;-72
2023/12/07 03:16:55;;;;;;;;;;;;;;;5.29;61.27;100928.69;5023645;28;7111;-72
2023/12/07 03:19:20;;;;;;;;;;;;;;;5.28;61.39;100915.13;5006424;28;6803;-72
2023/12/07 03:21:46;;;;;;;;;;;;;;;5.29;61.33;100916.00;5039524;28;6945;-72
2023/12/07 03:24:11;;;;;;;;;;;;;;;5.30;61.65;100922.84;5014640;28;6791;-72
2023/12/07 03:26:39;;;;;;;;;;;;;;;5.32;61.60;100925.53;5023486;28;6986;-71
2023/12/07 03:29:04;;;;;;;;;;;;;;;5.31;61.71;100921.22;5024440;28;7256;-75
2023/12/07 03:31:30;;;;;;;;;;;;;;;5.31;61.20;100926.28;5018895;28;6942;-72
2023/12/07 03:33:56;;;;;;;;;;;;;;;5.30;61.75;100920.31;5010669;28;6801;-74
2023/12/07 03:36:22;;;;;;;;;;;;;;;5.31;61.76;100921.22;5039434;28;7025;-72
2023/12/07 03:38:48;;;;;;;;;;;;;;;5.30;61.36;100916.91;4991367;28;7236;-73
2023/12/07 03:41:14;;;;;;;;;;;;;;;5.28;61.39;100919.31;5019665;28;6784;-77
2023/12/07 03:43:40;;;;;;;;;;;;;;;5.27;61.69;100922.63;5015317;28;6792;-81
2023/12/07 03:46:07;;;;;;;;;;;;;;;5.25;61.42;100919.94;5017322;28;6854;-80
2023/12/07 03:48:33;;;;;;;;;;;;;;;5.25;61.68;100919.09;5008210;28;7220;-79
2023/12/07 03:50:59;;;;;;;;;;;;;;;5.23;61.26;100915.53;5010100;28;7009;-83
2023/12/07 03:53:25;;;;;;;;;;;;;;;5.21;61.08;100917.94;5014218;28;6946;-85
2023/12/07 03:55:50;;;;;;;;;;;;;;;5.16;60.84;100910.75;5005314;28;7249;-82
2023/12/07 03:58:16;;;;;;;;;;;;;;;5.11;60.31;100916.34;5007613;28;6987;-83
2023/12/07 04:00:42;;;;;;;;;;;;;;;5.05;60.08;100920.97;5014573;28;6981;-83
2023/12/07 04:03:08;;;;;;;;;;;;;;;4.99;60.24;100923.00;5017440;28;6796;-80
2023/12/07 04:05:33;;;;;;;;;;;;;;;4.91;59.76;100922.41;4996138;28;7247;-84
2023/12/07 04:07:59;;;;;;;;;;;;;;;4.83;59.34;100924.34;5015170;28;6780;-86
2023/12/07 04:10:25;;;;;;;;;;;;;;;4.76;59.72;100927.16;5022546;28;6997;-86
2023/12/07 04:12:52;;;;;;;;;;;;;;;4.68;59.57;100933.28;5025806;28;6926;-80
2023/12/07 04:15:21;;;;;;;;;;;;;;;4.61;59.19;100936.97;5023268;28;6808;-82
2023/12/07 04:17:47;;;;;;;;;;;;;;;4.51;58.96;100931.91;5006200;28;6871;-84
2023/12/07 04:20:15;;;;;;;;;;;;;;;4.44;59.58;100941.56;5004882;28;7275;-85
2023/12/07 04:22:40;;;;;;;;;;;;;;;4.38;59.02;100935.09;5008375;28;6990;-81
2023/12/07 04:25:06;;;;;;;;;;;;;;;4.30;59.50;100944.66;5013197;28;6816;-81
2023/12/07 04:27:33;;;;;;;;;;;;;;;4.24;59.08;100947.53;5012148;28;6852;-82
2023/12/07 04:29:59;;;;;;;;;;;;;;;4.16;58.41;100944.38;5020016;28;6804;-80
2023/12/07 04:32:25;;;;;;;;;;;;;;;4.10;59.02;100946.41;5015184;28;6819;-85
2023/12/07 04:34:51;;;;;;;;;;;;;;;4.05;59.42;100946.78;4993705;28;8615;-79
2023/12/07 04:37:17;;;;;;;;;;;;;;;4.01;59.55;100948.19;5014248;28;7734;-73
2023/12/07 04:39:42;;;;;;;;;;;;;;;3.98;59.02;100953.91;5017508;28;6843;-79
2023/12/07 04:42:10;;;;;;;;;;;;;;;3.97;59.33;100954.66;5005696;28;8153;-74
2023/12/07 04:44:36;;;;;;;;;;;;;;;3.98;59.42;100961.50;5011756;28;6816;-80
2023/12/07 04:47:01;;;;;;;;;;;;;;;4.00;59.73;100961.63;5018849;28;6783;-80
2023/12/07 04:49:27;;;;;;;;;;;;;;;4.01;59.92;100961.75;5013910;28;6776;-77
2023/12/07 04:51:52;;;;;;;;;;;;;;;4.06;60.20;100966.34;5025217;28;7553;-80
2023/12/07 04:54:19;;;;;;;;;;;;;;;4.11;60.41;100972.66;5022400;28;6934;-83
2023/12/07 04:56:45;;;;;;;;;;;;;;;4.13;59.87;100982.19;5028356;28;7043;-84
2023/12/07 04:59:10;;;;;;;;;;;;;;;4.17;60.53;100983.34;5042062;28;8395;-81
2023/12/07 05:01:39;;;;;;;;;;;;;;;4.21;60.58;100982.81;5042487;28;6839;-83
2023/12/07 05:04:05;;;;;;;;;;;;;;;4.24;60.75;100995.75;5038889;28;6859;-82
2023/12/07 05:06:31;;;;;;;;;;;;;;;4.27;61.53;100988.41;5025419;28;6859;-84
2023/12/07 05:08:57;;;;;;;;;;;;;;;4.33;62.19;100992.19;5009976;28;7467;-86
2023/12/07 05:11:22;;;;;;;;;;;;;;;4.36;62.07;100987.41;5020055;28;7134;-80
2023/12/07 05:13:48;;;;;;;;;;;;;;;4.39;61.76;100980.03;5011365;28;7434;-76
2023/12/07 05:16:14;;;;;;;;;;;;;;;4.40;62.07;100981.81;5016118;28;6795;-83
2023/12/07 05:18:40;;;;;;;;;;;;;;;4.41;61.03;100973.41;5023282;28;6991;-82
2023/12/07 05:21:07;;;;;;;;;;;;;;;4.37;61.35;100972.28;5003213;28;6969;-83
2023/12/07 05:23:33;;;;;;;;;;;;;;;4.35;61.39;100970.41;5024049;28;6796;-83
2023/12/07 05:25:59;;;;;;;;;;;;;;;4.29;60.42;100976.72;5036068;28;7065;-81
2023/12/07 05:28:25;;;;;;;;;;;;;;;4.24;60.28;100972.91;5025313;28;6811;-78
2023/12/07 05:30:51;;;;;;;;;;;;;;;4.20;60.03;100975.06;5011363;28;6968;-84
2023/12/07 05:33:16;;;;;;;;;;;;;;;4.14;59.92;100972.91;5017279;28;6848;-78
2023/12/07 05:35:43;;;;;;;;;;;;;;;4.06;60.14;100961.25;5017209;28;7512;-84
2023/12/07 05:38:08;;;;;;;;;;;;;;;4.00;60.17;100956.53;5025396;28;6832;-80
2023/12/07 05:40:34;;;;;;;;;;;;;;;3.93;60.09;100965.28;5022118;28;6804;-80
2023/12/07 05:42:59;;;;;;;;;;;;;;;3.87;60.17;100954.66;5021728;28;6902;-75
2023/12/07 05:45:26;;;;;;;;;;;;;;;3.81;60.52;100949.06;5023683;28;6788;-77
2023/12/07 05:47:51;;;;;;;;;;;;;;;3.78;60.02;100942.06;5035693;28;7190;-79
2023/12/07 05:50:17;;;;;;;;;;;;;;;3.77;60.03;100944.47;5000735;28;7278;-80
2023/12/07 05:52:42;;;;;;;;;;;;;;;3.73;59.90;100941.69;5003316;28;6943;-85
2023/12/07 05:55:08;;;;;;;;;;;;;;;3.71;60.40;100953.34;5015278;28;7239;-83
2023/12/07 05:57:36;;;;;;;;;;;;;;;3.68;59.63;100948.03;5045146;28;6967;-85
2023/12/07 06:00:03;;;;;;;;;;;;;;;3.66;60.06;100956.25;5026047;28;7188;-74
2023/12/07 06:02:28;;;;;;;;;;;;;;;3.60;59.56;100944.81;5011947;28;7275;-75
2023/12/07 06:04:54;;;;;;;;;;;;;;;3.59;59.74;100939.66;5018015;28;6779;-74
2023/12/07 06:07:20;;;;;;;;;;;;;;;3.59;59.47;100944.72;5023468;28;6800;-74
2023/12/07 06:09:45;;;;;;;;;;;;;;;3.58;59.46;100938.75;5017353;28;6803;-74
2023/12/07 06:12:11;;;;;;;;;;;;;;;3.56;60.06;100931.75;5032944;28;6803;-74
2023/12/07 06:14:36;;;;;;;;;;;;;;;3.57;60.06;100936.06;5005771;28;7858;-74
2023/12/07 06:17:02;;;;;;;;;;;;;;;3.56;60.77;100939.38;5011269;28;6968;-74
2023/12/07 06:19:27;;;;;;;;;;;;;;;3.53;59.65;100934.94;5022112;28;6864;-74
2023/12/07 06:21:53;;;;;;;;;;;;;;;3.53;60.16;100936.59;5010284;28;6791;-74
2023/12/07 06:24:18;;;;;;;;;;;;;;;3.52;59.84;100934.81;5010089;28;6859;-74
2023/12/07 06:26:44;;;;;;;;;;;;;;;3.52;59.50;100924.66;5017047;28;6947;-74
2023/12/07 06:29:09;;;;;;;;;;;;;;;3.50;60.17;100924.53;5030935;28;6816;-74
2023/12/07 06:31:35;;;;;;;;;;;;;;;3.50;59.50;100916.06;5012835;28;7103;-74
2023/12/07 06:34:01;;;;;;;;;;;;;;;3.47;60.04;100920.09;5022364;28;6788;-74
2023/12/07 06:36:26;;;;;;;;;;;;;;;3.46;59.34;100917.44;5007165;28;7222;-75
2023/12/07 06:38:52;;;;;;;;;;;;;;;3.44;59.67;100921.50;5016455;28;6966;-74
2023/12/07 06:41:20;;;;;;;;;;;;;;;3.43;60.22;100919.72;5013824;28;7092;-75
2023/12/07 06:43:46;;;;;;;;;;;;;;;3.41;60.01;100908.53;5019175;28;7067;-74
2023/12/07 06:46:12;;;;;;;;;;;;;;;3.41;60.74;100917.06;5016173;28;6862;-74
2023/12/07 06:48:38;;;;;;;;;;;;;;;3.42;60.28;100916.28;5023500;28;6950;-74
2023/12/07 06:51:04;;;;;;;;;;;;;;;3.43;60.71;100913.00;5015012;28;7058;-74
2023/12/07 06:53:31;;;;;;;;;;;;;;;3.42;60.67;100921.34;5036345;28;6775;-74
2023/12/07 06:55:56;;;;;;;;;;;;;;;3.40;59.75;100919.44;5013633;28;7128;-75
2023/12/07 06:58:22;;;;;;;;;;;;;;;3.37;59.67;100924.25;5013279;28;7207;-74
2023/12/07 07:00:50;;;;;;;;;;;;;;;3.31;59.67;100933.09;5018999;28;6855;-73
2023/12/07 07:03:16;;;;;;;;;;;;;;;3.32;60.20;100945.00;5017190;28;6799;-73
2023/12/07 07:05:42;;;;;;;;;;;;;;;3.30;59.78;100933.84;5021925;28;6971;-74
2023/12/07 07:08:08;;;;;;;;;;;;;;;3.31;59.79;100922.09;5001139;28;6954;-74
2023/12/07 07:10:34;;;;;;;;;;;;;;;3.30;59.95;100913.59;5039534;28;6835;-85
2023/12/07 07:13:04;;;;;;;;;;;;;;;3.31;59.10;100917.03;5012737;28;7326;-82
2023/12/07 07:15:31;;;;;;;;;;;;;;;3.29;59.67;100911.81;5014123;28;7678;-77
2023/12/07 07:17:57;;;;;;;;;;;;;;;3.29;59.97;100909.28;5020121;28;6808;-83
2023/12/07 07:20:22;;;;;;;;;;;;;;;3.30;60.30;100907.66;5016921;28;7019;-84
2023/12/07 07:22:48;;;;;;;;;;;;;;;3.32;60.42;100913.72;5043433;28;12418;-82
2023/12/07 07:25:15;;;;;;;;;;;;;;;3.34;60.59;100917.28;5010882;28;6954;-84
2023/12/07 07:27:42;;;;;;;;;;;;;;;3.33;60.10;100915.50;5023031;28;8475;-81
2023/12/07 07:30:08;;;;;;;;;;;;;;;3.32;60.60;100921.34;5008051;28;7069;-83
2023/12/07 07:32:34;;;;;;;;;;;;;;;3.33;60.12;100923.09;5011813;28;7239;-78
2023/12/07 07:34:59;;;;;;;;;;;;;;;3.35;60.13;100921.59;5024475;28;6780;-78
2023/12/07 07:37:25;;;;;;;;;;;;;;;3.38;60.31;100921.88;5011615;28;7881;-80
2023/12/07 07:39:50;;;;;;;;;;;;;;;3.40;60.26;100921.97;5019381;28;7022;-85
2023/12/07 07:42:16;;;;;;;;;;;;;;;3.43;60.37;100922.25;5024581;28;6947;-77
2023/12/07 07:44:42;;;;;;;;;;;;;;;3.46;60.00;100933.50;5025755;28;6796;-84
2023/12/07 07:47:08;;;;;;;;;;;;;;;3.49;60.19;100932.03;5032685;28;6981;-79
2023/12/07 07:49:33;;;;;;;;;;;;;;;3.51;60.52;100933.03;5042895;28;6847;-81
2023/12/07 07:51:59;;;;;;;;;;;;;;;3.53;60.45;100928.97;5031714;28;6983;-86
2023/12/07 07:54:25;;;;;;;;;;;;;;;3.54;61.00;100931.66;5012096;28;6961;-85
2023/12/07 07:56:50;;;;;;;;;;;;;;;3.59;60.10;100935.44;5021618;28;7609;-84
2023/12/07 07:59:16;;;;;;;;;;;;;;;3.62;60.92;100929.75;5032919;28;7078;-78
2023/12/07 08:01:41;;;;;;;;;;;;;;;3.66;60.57;100926.72;5040412;28;7116;-78
2023/12/07 08:04:07;;;;;;;;;;;;;;;3.70;60.67;100923.69;5013941;28;7747;-78
2023/12/07 08:06:34;;;;;;;;;;;;;;;3.75;60.95;100924.94;5029592;28;7417;-85
2023/12/07 08:08:59;;;;;;;;;;;;;;;3.81;61.53;100923.69;5026940;28;7033;-81
2023/12/07 08:11:25;;;;;;;;;;;;;;;3.84;60.88;100931.56;5033567;28;6807;-85
2023/12/07 08:13:50;;;;;;;;;;;;;;;3.88;61.11;100920.91;5033138;28;6955;-83
2023/12/07 08:16:16;;;;;;;;;;;;;;;3.92;60.84;100925.47;5016026;28;7401;-82
2023/12/07 08:18:42;;;;;;;;;;;;;;;3.96;61.34;100919.00;5027830;28;7229;-80
2023/12/07 08:21:08;;;;;;;;;;;;;;;3.98;61.05;100915.84;5036184;28;8002;-74
2023/12/07 08:23:35;;;;;;;;;;;;;;;4.02;61.86;100909.38;5017829;28;8354;-74
2023/12/07 08:26:01;;;;;;;;;;;;;;;4.07;61.73;100910.63;5024687;28;7001;-74
2023/12/07 08:28:27;;;;;;;;;;;;;;;4.12;61.48;100905.94;5002955;28;6983;-75
2023/12/07 08:30:52;;;;;;;;;;;;;;;4.16;61.59;100906.31;5041443;28;6787;-75
2023/12/07 08:33:18;;;;;;;;;;;;;;;4.21;61.45;100903.28;5020131;28;6820;-74
2023/12/07 08:35:43;;;;;;;;;;;;;;;4.28;61.76;100900.47;5020774;28;7313;-75
2023/12/07 08:38:09;;;;;;;;;;;;;;;4.35;62.03;100904.41;5015817;28;7286;-74
2023/12/07 08:40:34;;;;;;;;;;;;;;;4.41;61.42;100899.81;5018161;28;6799;-75
2023/12/07 08:43:00;;;;;;;;;;;;;;;4.47;62.08;100910.47;5018374;28;8153;-75
2023/12/07 08:45:25;;;;;;;;;;;;;;;4.49;61.74;100906.41;5011360;28;6972;-75
2023/12/07 08:47:51;;;;;;;;;;;;;;;4.53;61.42;100915.16;5025742;28;7166;-75
2023/12/07 08:50:16;;;;;;;;;;;;;;;4.54;60.94;100905.13;5018220;28;6803;-74
2023/12/07 08:52:42;;;;;;;;;;;;;;;4.57;60.72;100909.53;5016200;28;7196;-75
2023/12/07 08:55:07;;;;;;;;;;;;;;;4.57;61.17;100910.44;5040852;28;6784;-74
2023/12/07 08:57:33;;;;;;;;;;;;;;;4.58;60.78;100911.31;5006650;28;7314;-74
2023/12/07 08:59:59;;;;;;;;;;;;;;;4.57;61.33;100915.53;5036299;28;6894;-74
2023/12/07 09:02:25;;;;;;;;;;;;;;;4.59;60.50;100916.53;5006989;28;6996;-74
2023/12/07 09:04:51;;;;;;;;;;;;;;;4.59;60.40;100908.91;5013477;28;6842;-74
2023/12/07 09:07:17;;;;;;;;;;;;;;;4.58;60.57;100904.59;5018550;28;6830;-74
2023/12/07 09:09:47;;;;;;;;;;;;;;;4.59;60.49;100920.72;5015695;28;7004;-74
2023/12/07 09:12:14;;;;;;;;;;;;;;;4.57;60.89;100912.97;5019021;28;6876;-74
2023/12/07 09:14:40;;;;;;;;;;;;;;;4.59;60.76;100918.19;5020484;28;7241;-74
2023/12/07 09:17:05;;;;;;;;;;;;;;;4.61;60.86;100913.22;5014870;28;6784;-74
2023/12/07 09:19:31;;;;;;;;;;;;;;;4.63;60.61;100906.59;5018889;28;7228;-74
2023/12/07 09:21:58;;;;;;;;;;;;;;;4.65;60.83;100907.63;5036290;28;8318;-74
2023/12/07 09:24:24;;;;;;;;;;;;;;;4.66;60.67;100904.34;5014446;28;7879;-74
2023/12/07 09:26:49;;;;;;;;;;;;;;;4.68;61.13;100911.31;5018781;28;7075;-74
2023/12/07 09:29:15;;;;;;;;;;;;;;;4.71;60.60;100908.09;5013780;28;6791;-74
2023/12/07 09:31:40;;;;;;;;;;;;;;;4.72;60.62;100915.84;5014414;28;7402;-77
2023/12/07 09:34:08;;;;;;;;;;;;;;;4.76;60.72;100919.53;5016065;28;7931;-77
2023/12/07 09:36:33;;;;;;;;;;;;;;;4.80;60.97;100921.53;5032062;28;6887;-77
2023/12/07 09:38:59;;;;;;;;;;;;;;;4.84;61.07;100918.50;5016359;28;6784;-77
2023/12/07 09:41:27;;;;;;;;;;;;;;;4.89;61.12;100925.59;5010724;28;7048;-77
2023/12/07 09:43:52;;;;;;;;;;;;;;;4.92;61.16;100924.19;5001172;28;7940;-77
2023/12/07 09:46:18;;;;;;;;;;;;;;;4.98;61.48;100911.06;5033949;28;6960;-77
2023/12/07 09:48:45;;;;;;;;;;;;;;;5.02;61.30;100900.38;5011879;28;6783;-77
2023/12/07 09:51:11;;;;;;;;;;;;;;;5.08;61.41;100890.69;5018206;28;6950;-77
2023/12/07 09:53:38;;;;;;;;;;;;;;;5.12;60.94;100880.03;5009045;28;6990;-77
2023/12/07 09:56:04;;;;;;;;;;;;;;;5.18;61.70;100868.53;5014798;28;7417;-76
2023/12/07 09:58:30;;;;;;;;;;;;;;;5.27;61.39;100866.69;5020036;28;6784;-77
2023/12/07 10:00:55;;;;;;;;;;;;;;;5.36;62.10;100859.78;5040110;28;6813;-76
2023/12/07 10:03:22;;;;;;;;;;;;;;;5.50;62.10;100863.38;5040138;28;6848;-76
2023/12/07 10:05:56;;;;;;;;;;;;;;;5.68;62.19;100855.38;5023752;28;7702;-76
2023/12/07 10:08:27;;;;;;;;;;;;;;;5.89;62.29;100858.63;5017495;28;6784;-75
2023/12/07 10:11:09;;;;;;;;;;;;;;;6.12;62.36;100854.38;5023784;28;6807;-76
2023/12/07 10:13:36;;;;;;;;;;;;;;;6.37;61.91;100856.16;5033290;28;7327;-76
2023/12/07 10:16:06;;;;;;;;;;;;;;;6.63;62.51;100846.94;5033348;28;7052;-76
2023/12/07 10:18:32;;;;;;;;;;;;;;;6.84;61.96;100844.13;5024867;28;6799;-76
2023/12/07 10:20:57;;;;;;;;;;;;;;;7.04;62.17;100830.25;5006900;28;6969;-75
2023/12/07 10:23:25;;;;;;;;;;;;;;;7.27;61.40;100828.38;5036594;28;6977;-76
2023/12/07 10:25:50;;;;;;;;;;;;;;;7.52;60.75;100818.16;5024891;28;6816;-76
2023/12/07 10:28:17;;;;;;;;;;;;;;;7.82;61.15;100815.00;5023514;28;6804;-76
2023/12/07 10:30:44;;;;;;;;;;;;;;;8.08;59.85;100809.06;5014781;28;6795;-75
2023/12/07 10:33:09;;;;;;;;;;;;;;;8.38;59.74;100798.16;5023422;28;6811;-75
2023/12/07 10:35:39;;;;;;;;;;;;;;;8.68;58.95;100804.31;5008596;28;7448;-75
2023/12/07 10:38:05;;;;;;;;;;;;;;;8.93;58.19;100793.06;5015359;28;6792;-75
2023/12/07 10:40:34;;;;;;;;;;;;;;;9.15;58.51;100786.69;5024394;28;6796;-75
2023/12/07 10:43:05;;;;;;;;;;;;;;;9.33;57.60;100788.56;5022980;28;7065;-73
2023/12/07 10:45:31;;;;;;;;;;;;;;;9.51;58.03;100778.53;5016166;28;6816;-74
2023/12/07 10:48:07;;;;;;;;;;;;;;;9.79;56.72;100780.13;5014149;28;6791;-73
2023/12/07 10:50:41;;;;;;;;;;;;;;;10.13;56.55;100772.66;5017908;28;6804;-73
2023/12/07 10:53:19;;;;;;;;;;;;;;;10.58;55.46;100761.44;5006719;28;6998;-74
2023/12/07 10:55:50;;;;;;;;;;;;;;;11.03;54.39;100756.09;4998458;28;7037;-74
2023/12/07 10:58:16;;;;;;;;;;;;;;;11.43;54.39;100752.13;5006494;28;7251;-74
2023/12/07 11:00:46;;;;;;;;;;;;;;;11.79;53.30;100747.03;5039070;28;6993;-74
2023/12/07 11:03:16;;;;;;;;;;;;;;;12.08;53.30;100733.84;5012852;28;7636;-74
2023/12/07 11:05:42;;;;;;;;;;;;;;;12.35;53.24;100725.69;5027818;28;6973;-74
2023/12/07 11:08:10;;;;;;;;;;;;;;;12.62;51.54;100730.31;5012417;28;7201;-74
2023/12/07 11:11:01;;;;;;;;;;;;;;;12.93;51.52;100739.38;5006244;28;7099;-74
2023/12/07 11:13:32;;;;;;;;;;;;;;;13.37;50.32;100731.81;5015582;28;7288;-75
2023/12/07 11:15:57;;;;;;;;;;;;;;;13.76;49.66;100715.38;5015998;28;7272;-74
2023/12/07 11:18:26;;;;;;;;;;;;;;;14.19;48.82;100715.31;5011796;28;6981;-73
2023/12/07 11:20:52;;;;;;;;;;;;;;;14.46;47.98;100718.03;5013655;28;7043;-74
2023/12/07 11:23:18;;;;;;;;;;;;;;;14.58;48.54;100718.50;5014976;28;6871;-74
2023/12/07 11:25:45;;;;;;;;;;;;;;;14.75;48.61;100715.66;5004945;28;7296;-74
2023/12/07 11:28:12;;;;;;;;;;;;;;;14.93;47.75;100714.56;5013912;28;7398;-73
2023/12/07 11:30:37;;;;;;;;;;;;;;;15.11;47.23;100712.63;5013850;28;6799;-74
2023/12/07 11:33:04;;;;;;;;;;;;;;;15.32;46.82;100710.75;5012731;28;6791;-74
2023/12/07 11:35:30;;;;;;;;;;;;;;;15.55;45.92;100706.34;5022414;28;6964;-74
2023/12/07 11:38:11;;;;;;;;;;;;;;;15.65;46.09;100695.47;5039284;28;6933;-74
2023/12/07 11:40:41;;;;;;;;;;;;;;;15.57;45.91;100702.09;5021049;28;7729;-74
2023/12/07 11:43:07;;;;;;;;;;;;;;;15.44;46.02;100705.97;5021901;28;6804;-74
2023/12/07 11:45:57;;;;;;;;;;;;;;;15.23;46.26;100701.84;5005249;28;7285;-75
2023/12/07 11:48:23;;;;;;;;;;;;;;;14.88;46.81;100700.66;5010758;28;7210;-74
2023/12/07 11:51:07;;;;;;;;;;;;;;;14.46;46.93;100710.28;5014152;28;6832;-74
2023/12/07 11:53:34;;;;;;;;;;;;;;;14.27;47.69;100698.44;5015484;28;6831;-74
2023/12/07 11:56:04;;;;;;;;;;;;;;;14.39;47.83;100685.09;5005517;28;7006;-73
2023/12/07 11:58:31;;;;;;;;;;;;;;;14.57;47.52;100677.16;5022206;28;7243;-74
2023/12/07 12:00:57;;;;;;;;;;;;;;;14.40;46.38;100671.41;5013997;28;6998;-74
2023/12/07 12:03:24;;;;;;;;;;;;;;;13.81;47.25;100672.66;5016006;28;6989;-74
2023/12/07 12:05:50;;;;;;;;;;;;;;;13.10;48.72;100675.78;5004470;28;6969;-74
2023/12/07 12:08:17;;;;;;;;;;;;;;;12.43;50.21;100669.47;5012641;28;6784;-75
2023/12/07 12:10:44;;;;;;;;;;;;;;;11.85;50.94;100668.53;5017999;28;6962;-74
2023/12/07 12:13:09;;;;;;;;;;;;;;;11.37;51.99;100661.97;5016175;28;7351;-75
2023/12/07 12:15:35;;;;;;;;;;;;;;;10.98;52.20;100657.53;5014931;28;6957;-74
2023/12/07 12:18:01;;;;;;;;;;;;;;;10.66;52.93;100654.19;5032453;28;7168;-73
2023/12/07 12:20:27;;;;;;;;;;;;;;;10.37;53.37;100659.53;5006324;28;7122;-74
2023/12/07 12:22:53;;;;;;;;;;;;;;;10.12;53.55;100647.09;5018755;28;7225;-74
2023/12/07 12:25:22;;;;;;;;;;;;;;;9.92;53.88;100648.56;5008706;28;7371;-74
2023/12/07 12:27:49;;;;;;;;;;;;;;;9.74;54.05;100639.06;5001218;28;6916;-74
2023/12/07 12:30:15;;;;;;;;;;;;;;;9.62;54.90;100635.84;5001582;28;7012;-73
2023/12/07 12:32:44;;;;;;;;;;;;;;;9.48;55.05;100624.84;5037385;28;7113;-74
2023/12/07 12:35:11;;;;;;;;;;;;;;;9.36;54.78;100623.34;5019048;28;6791;-74
2023/12/07 12:37:38;;;;;;;;;;;;;;;9.26;55.66;100619.38;5021192;28;7116;-74
2023/12/07 12:40:07;;;;;;;;;;;;;;;9.15;55.47;100603.44;5006305;28;8444;-74
2023/12/07 12:42:33;;;;;;;;;;;;;;;9.08;55.54;100605.53;5019817;28;7296;-74
2023/12/07 12:44:59;;;;;;;;;;;;;;;9.01;55.91;100589.88;5014127;28;6930;-74
2023/12/07 12:47:25;;;;;;;;;;;;;;;8.97;55.92;100590.47;5021293;28;6957;-74
2023/12/07 12:49:51;;;;;;;;;;;;;;;8.92;56.25;100581.66;5020126;28;6795;-74
2023/12/07 12:52:17;;;;;;;;;;;;;;;8.89;55.95;100584.06;5001327;28;7235;-75